createdAt,value
2019-02-09T00:03:26.339Z,4.2
2019-02-09T00:17:31.518Z,4.2
2019-02-09T00:32:24.723Z,3.6
2019-02-09T00:47:41.650Z,2.9
2019-02-09T01:02:36.053Z,3.7
2019-02-09T01:17:32.969Z,3.5
2019-02-09T01:32:36.582Z,3.3
2019-02-09T01:47:37.848Z,2.4
2019-02-09T02:02:46.602Z,2.7
2019-02-09T02:17:49.020Z,2.7
2019-02-09T02:32:43.255Z,3.6
2019-02-09T02:48:05.768Z,1.6
2019-02-09T03:03:22.409Z,2.6
2019-02-09T03:18:30.088Z,1.8
2019-02-09T03:33:34.752Z,1.8
2019-02-09T03:47:34.679Z,1.8
2019-02-09T04:02:56.080Z,1.8
2019-02-09T04:17:58.563Z,1.3
2019-02-09T04:32:50.850Z,1.5
2019-02-09T04:48:24.761Z,2.4
2019-02-09T05:03:10.221Z,1.6
2019-02-09T05:17:55.861Z,1.7
2019-02-09T05:32:53.510Z,1.3
2019-02-09T05:47:41.794Z,1.9
2019-02-09T06:03:31.019Z,1.3
2019-02-09T06:18:24.949Z,1.8
2019-02-09T06:32:57.621Z,2.1
2019-02-09T06:43:23.649Z,2.1
2019-02-09T06:48:24.645Z,2.5
2019-02-09T07:03:35.295Z,2.4
2019-02-09T07:17:50.045Z,3
2019-02-09T07:32:52.602Z,3.8
2019-02-09T07:47:52.720Z,3.2
2019-02-09T08:03:33.263Z,3.7
2019-02-09T08:18:32.330Z,6.6
2019-02-09T08:33:31.387Z,5.7
2019-02-09T08:48:21.888Z,8.5
2019-02-09T09:02:57.713Z,7
2019-02-09T09:18:04.307Z,8.1
2019-02-09T09:33:43.212Z,9.4
2019-02-09T09:47:47.001Z,10.3
2019-02-09T10:03:31.664Z,8.9
2019-02-09T10:17:44.078Z,8.9
2019-02-09T10:18:43.147Z,10.2
2019-02-09T10:33:34.109Z,5.6
2019-02-09T10:48:23.568Z,6.8
2019-02-09T11:03:19.912Z,7.1
2019-02-09T11:18:23.141Z,9.6
2019-02-09T11:33:15.007Z,7
2019-02-09T11:48:06.588Z,7.1
2019-02-09T12:03:05.392Z,9.8
2019-02-09T12:03:14.573Z,9.8
2019-02-09T12:03:15.140Z,9.8
2019-02-09T12:18:55.481Z,10.7
2019-02-09T12:33:48.457Z,13.8
2019-02-09T12:48:03.817Z,10.1
2019-02-09T13:03:39.612Z,11.5
2019-02-09T13:18:56.216Z,11.5
2019-02-09T13:33:40.252Z,8.7
2019-02-09T13:48:45.054Z,8.3
2019-02-09T14:03:46.539Z,10.9
2019-02-09T14:03:46.791Z,10.9
2019-02-09T14:18:34.666Z,10.8
2019-02-09T14:33:29.941Z,9.6
2019-02-09T14:48:39.274Z,8
2019-02-09T15:03:30.444Z,7.1
2019-02-09T15:18:03.962Z,5.9
2019-02-09T15:33:52.594Z,7.4
2019-02-09T15:48:46.273Z,5.1
2019-02-09T16:03:54.752Z,5.3
2019-02-09T16:18:35.723Z,6.1
2019-02-09T16:33:37.518Z,4.6
2019-02-09T16:48:39.579Z,5
2019-02-09T17:03:33.033Z,4.5
2019-02-09T17:18:17.904Z,4
2019-02-09T17:33:15.358Z,4.6
2019-02-09T17:48:33.798Z,4.4
2019-02-09T18:03:26.728Z,4.5
2019-02-09T18:18:31.592Z,3.8
2019-02-09T18:33:25.481Z,3.6
2019-02-09T18:48:25.457Z,5.6
2019-02-09T18:52:57.264Z,5.6
2019-02-09T19:03:45.984Z,9.4
2019-02-09T19:18:48.231Z,11.4
2019-02-09T19:33:16.779Z,12.3
2019-02-09T19:48:53.066Z,9.9
2019-02-09T20:04:09.913Z,7.9
2019-02-09T20:18:39.039Z,17.6
2019-02-09T20:34:16.348Z,18.1
2019-02-09T20:48:58.175Z,16.7
2019-02-09T21:03:45.000Z,14.8
2019-02-09T21:19:21.376Z,17
2019-02-09T21:33:56.656Z,16.6
2019-02-09T21:48:40.457Z,15.8
2019-02-09T22:04:02.958Z,16.1
2019-02-09T22:34:02.519Z,13.7
2019-02-09T22:48:52.254Z,13.8
2019-02-09T23:04:26.802Z,13.5
2019-02-09T23:18:59.925Z,11
2019-02-09T23:34:41.067Z,11.9
2019-02-09T23:49:10.853Z,10.8
